Change Date:Time:

Metar of : 9/25/2017 1100UTC
Metar
OPAP BW 23006KT 4000 HZ NSC 37/24 Q1004 49%
OPBK 1100UTC 18003KT 9999 SCT030 31/16 RH 40%
OPBKR 13002KT CAVOK 39/24 43%
OPBL 251100Z 13004KT 8000 NSC 36/20 RH38%
OPBN 1100 UTC 09008 KT CAVOK 35/22 RH 45%
OPBR 31002KT CAVOK 38/22 40%
OPBW 27004KT 4500 HZ NSC 36/22 45%
OPCH 1100Z 18004KT 9999 FEW030 31/09 Q1010 27%
OPCK 31002KT 9999 FEW040 34/16 35%
OPDG 13006KT 6000 NSC 36/22 Q1004 45%
OPDH 251100Z 22514KT 9999 few 040 33/03 16%
OPDIR 1100Z 18002KT 9999 SCT035 29/13 RH37
OPDU 251100Z 00000KT 7000 HZ NSC 40/20 RH32%
OPFA 31004KT 6000 FEW040 36/21 Q1005 NOSIG RH 41%
OPGD 251100Z 18012KT 4000 HZ NSC 32/23 Q1006 RH61%
OPGP 31004KT CAVOK 33/18 42%
OPGT 00000KT 9000 SCT040 SCT120 30/12 Q1010 35% A/V P CLOUDY
OPGW 00000KT 9999 SCT040 33/26 67%
OPHQ 00000KT 6000 FEW030 33/21 Q1002.8 RH 51%
OPJBD 13002KT CAVOK 36/23 48%
OPJG 18002KT CAVOK 36/22 Q1002 45%
OPJM 18002KT 4000 FU FEW040 35/25 57%
OPKAD 00000KT 8000 NSC 37/23 46%
OPKC 251100Z 23010KT 7000 BKN 020 32/24 Q1004 RH 63%
OPKD 251100Z 23010KT 6000 NSC 35/22 Q1004 RH47% NO SIG
OPKE 251100Z 22506KT 6000 SKC 35/23 Q1004 RH49%
OPKK 24 1100Z 00000KT 9999 SCT035 28/15 46%
OPKL 23002KT 9999 SCT040 32/21 51%
OPKLM 1100Z 13004KT 9999 SCT 100 23/03 27%
OPKP 00000KT 4000 FU NSC 37/25 51%
OPKRL 00000KT 5000 HZ NSC 36/22 43%
OPKS 13002KT 6000 SCT040 SCT100 35/25 57%
OPLA 05005KT 4000 FU FEW040 SCT100 33/23 Q1005 A29.68 NOSIG RH 56%
OPLRK 251100Z 13502KT 6000 NSC 36/25 Q.1004 RH51%
OPMA 23008KT 3000 FU SCT040 SCT100 34/23 Q1007 54%
OPMB 00000KT FU SCT120 34/26 Q1004 62%
OPME 00000KT 1000 OVC010ST 20/19 91%
OPMF 00000KT 9999 FEW 033 31/17 44%
OPMIT 251100Z 22510KT 6000 NSC 35/20 Q1004 RH42%
OPMJ 251100Z 31004KT 6000 NSC 35/23 Q1004 RH49% NO SIG
OPMJB 1100Z 00000KT 9999 SCT 040 18/13 RH 73%
OPMT 18008KT 4000 HZ NSC 35/21 Q1003 NOSIG RH45%
OPNH 251100Z 13506KT 6000 NSC 38/21 Q1003 RH38% NOSIG
OPNPT 00000KT 7000 SCT100 38/24 45%
OPOK 23002KT 6000 NSC 37/23 Q1004 46%
OPPI 251100Z 23015KT 7000 SKC 31/27 Q1006 RH69%
OPPSH 41529 05002KT 5000 HZ 34/21 46%
OPQT 31010KT CAVOK NSC 29/M03 Q1017 RH.13%
OPRK 23004KT 6000 NSC 38/22 Q1003 41%
OPRN 23006KT 4000 HZ SCT030 33/18 Q1007.1 RH 42%
OPRT 00000KT 9999 FEW040 SCT100 24/16 Q1019 58%
OPSD 00000KT 9999 SCT040 SCT100 24/04 Q1015 27%A/V O.H CLOUDY
OPSG 00000KT 7000 NSC 35/24 54%
OPSK 251100Z 00000KT 5000 HZ NSC 38/25 Q1002 NOSIG
OPSKD 25/1100Z 00000KT 6000 NSC 36/23 Q///// RH 46%NO SIG
OPSKT 27002KT 6000 SCT035 33/24 58%
OPSS 1100Z 00000KT 9999 FEW040 31/16 41%
OPST 23006KT 4000 FU FEW100 32/23 Q1005 NOSIG RH58%
OPSW 00000KT 6000 NSC 37/22 Q1003 44%
OPTJM 251100Z 23008kt 6000 Nsc 35/24 Q1005 RH 52%
OPTMG 1100UTC 18002KT 9999 SCT 030 35/16 34%
OPTS 18002KT 7000 NSC 37/23 44%
OPTU 251100Z 05008KT CAVOK 41/-13 Q1002 RH03%
OPUG 05008KT 4000 FU SCT100 33/24 58%
CodeW.DirSpeedVisibilityCloud ConditionTempPressureHumidityStation
OPAP23006KT4000mHaze37oC1004hp49%B-PUR A/P
OPBK18003KT9999mPartly Cloudy31oC40%Balakot
OPBKR13002KTClear39oC43%Bhakkar
OPBR31002KTClear38oC40%Bahawalnagar
OPBW27004KT4500mHaze36oC45%Bahawalpur
OPCH18004KT9999mPartly Cloudy31oC1010hp27%Chitral
OPCK31002KT9999mPartly Cloudy34oC35%Chakwal
OPDG13006KT6000mClear36oC1004hp45%D-G-KHAN
OPFA31004KT6000mPartly Cloudy36oC1005hp41%Faisalabad
OPGD18012KT4000mHaze32oC1006hp61%Gawadar
OPGP31004KTClear33oC42%GARHI DOPATTA
OPGT00000KT9000mPartly Cloudy30oC1010hp35%Gilgit
OPGW00000KT9999mPartly Cloudy33oC67%Gujranwala
OPHQ00000KT6000mPartly Cloudy33oC51%Islamabad
OPJBD13002KTClear36oC48%Joharabad
OPJG18002KTClear36oC1002hp45%Jhang
OPJM18002KT4000mPartly Cloudy35oC57%Jhelum
OPKAD00000KT8000mClear37oC46%KOT ADDU
OPKC23010KT7000mCloudy32oC1004hp63%KARACHI A/P
OPKD23010KT6000mClear35oC1004hp47%Hyderabad
OPKE22506KT6000mClear35oC1004hp49%Chhor
OPKK00000KT9999mPartly Cloudy28oC46%Kakul
OPKL23002KT9999mPartly Cloudy32oC51%Kotli
OPKP00000KT4000mHaze37oC51%Khanpur
OPKRL00000KT5000mHaze36oC43%KAROR (LAYYAH)
OPKS13002KT6000mPartly Cloudy35oC57%Kasur
OPLA05005KT4000mPartly Cloudy33oC1005hp56%LAHORE A/P
OPMA23008KT3000mPartly Cloudy34oC1007hp54%Mangla
OPMB00000KTPartly Cloudy34oC1004hp62%MANDI BAHUDDIN
OPME00000KT1000mCloudy20oC91%Murree
OPMF00000KT9999mPartly Cloudy31oC44%MUZAFFARABAD
OPMJ31004KT6000mClear35oC1004hp49%MOHENJO DARO
OPMJB00000KT9999mPartly Cloudy18oC73%MALAM JABBA
OPMT18008KT4000mHaze35oC1003hp45%Multan
OPNH13506KT6000mClear38oC1003hp38%Sh Benazirabad
OPNPT00000KT7000mPartly Cloudy38oC45%NOOR PUR THAL
OPOK23002KT6000mClear37oC1004hp46%Okara
OPPI23015KT7000mClear31oC1006hp69%Pasni
OPQT31010KTClear29oC1017hp13%Quetta
OPRK23004KT6000mClear38oC1003hp41%R-Y-KHAN
OPRN23006KT4000mPartly Cloudy33oC42%CHAKLALA- RAWALPINDI
OPRT00000KT9999mPartly Cloudy24oC1019hp58%Rawalakot
OPSD00000KT9999mPartly Cloudy24oC1015hpSkardu
OPSK00000KT5000mHaze38oC1002hpSukkur
OPSS00000KT9999mPartly Cloudy31oC41%SAIDU SHARIF
OPST23006KT4000mPartly Cloudy32oC1005hp58%SIAL A/P SIALKOT
OPSW00000KT6000mClear37oC1003hp44%Sahiwal
OPTMG18002KT9999mPartly Cloudy35oC34%Tim Dir
OPTS18002KT7000mClear37oC44%T.T. SINGH
OPTU05008KTClear41oC1002hp03%Turbat
OPUG05008KT4000mPartly Cloudy33oC58%Gujrat